sensor_id;sensor_type;location;lat;lon;timestamp;P1;durP1;ratioP1;P2;durP2;ratioP2
59520;SDS011;54898;40.918;14.476;2022-07-03T00:01:53;28.10;;;9.70;;
59520;SDS011;54898;40.918;14.476;2022-07-03T00:04:20;19.98;;;8.23;;
59520;SDS011;54898;40.918;14.476;2022-07-03T00:06:47;24.60;;;8.27;;
59520;SDS011;54898;40.918;14.476;2022-07-03T00:09:14;28.77;;;9.02;;
59520;SDS011;54898;40.918;14.476;2022-07-03T00:11:41;18.63;;;8.30;;
59520;SDS011;54898;40.918;14.476;2022-07-03T00:14:08;23.65;;;9.18;;
59520;SDS011;54898;40.918;14.476;2022-07-03T00:16:35;28.20;;;9.18;;
59520;SDS011;54898;40.918;14.476;2022-07-03T00:19:03;20.70;;;8.88;;
59520;SDS011;54898;40.918;14.476;2022-07-03T00:21:31;20.60;;;8.23;;
59520;SDS011;54898;40.918;14.476;2022-07-03T00:24:02;21.95;;;8.25;;
59520;SDS011;54898;40.918;14.476;2022-07-03T00:31:27;24.83;;;8.70;;
59520;SDS011;54898;40.918;14.476;2022-07-03T00:33:55;21.88;;;8.68;;
59520;SDS011;54898;40.918;14.476;2022-07-03T00:36:25;26.05;;;8.65;;
59520;SDS011;54898;40.918;14.476;2022-07-03T00:38:52;20.65;;;8.98;;
59520;SDS011;54898;40.918;14.476;2022-07-03T00:41:26;20.35;;;8.25;;
59520;SDS011;54898;40.918;14.476;2022-07-03T00:43:54;29.20;;;9.18;;
59520;SDS011;54898;40.918;14.476;2022-07-03T00:46:21;19.90;;;8.10;;
59520;SDS011;54898;40.918;14.476;2022-07-03T00:48:50;22.23;;;8.95;;
59520;SDS011;54898;40.918;14.476;2022-07-03T00:51:18;25.05;;;8.68;;
59520;SDS011;54898;40.918;14.476;2022-07-03T00:53:50;20.45;;;8.07;;
59520;SDS011;54898;40.918;14.476;2022-07-03T00:56:19;26.45;;;9.32;;
59520;SDS011;54898;40.918;14.476;2022-07-03T00:58:49;28.02;;;9.23;;
59520;SDS011;54898;40.918;14.476;2022-07-03T01:01:19;22.67;;;8.27;;
59520;SDS011;54898;40.918;14.476;2022-07-03T01:03:47;26.33;;;8.98;;
59520;SDS011;54898;40.918;14.476;2022-07-03T01:06:20;17.75;;;8.15;;
59520;SDS011;54898;40.918;14.476;2022-07-03T01:08:51;18.35;;;8.55;;
59520;SDS011;54898;40.918;14.476;2022-07-03T01:11:20;19.02;;;7.85;;
59520;SDS011;54898;40.918;14.476;2022-07-03T01:13:54;17.95;;;7.68;;
59520;SDS011;54898;40.918;14.476;2022-07-03T01:16:28;21.92;;;8.02;;
59520;SDS011;54898;40.918;14.476;2022-07-03T01:19:04;18.92;;;8.13;;
59520;SDS011;54898;40.918;14.476;2022-07-03T01:21:39;20.00;;;8.68;;
59520;SDS011;54898;40.918;14.476;2022-07-03T01:24:26;22.83;;;8.43;;
59520;SDS011;54898;40.918;14.476;2022-07-03T01:27:06;18.30;;;8.02;;
59520;SDS011;54898;40.918;14.476;2022-07-03T01:29:38;21.10;;;8.25;;
59520;SDS011;54898;40.918;14.476;2022-07-03T01:32:13;20.55;;;8.07;;
59520;SDS011;54898;40.918;14.476;2022-07-03T01:34:42;23.63;;;7.90;;
59520;SDS011;54898;40.918;14.476;2022-07-03T01:39:39;21.13;;;8.20;;
59520;SDS011;54898;40.918;14.476;2022-07-03T01:42:11;18.67;;;7.75;;
59520;SDS011;54898;40.918;14.476;2022-07-03T01:44:40;21.25;;;7.78;;
59520;SDS011;54898;40.918;14.476;2022-07-03T01:47:07;18.80;;;7.72;;
59520;SDS011;54898;40.918;14.476;2022-07-03T01:49:34;19.92;;;7.75;;
59520;SDS011;54898;40.918;14.476;2022-07-03T01:52:02;22.05;;;7.55;;
59520;SDS011;54898;40.918;14.476;2022-07-03T01:54:29;22.52;;;7.38;;
59520;SDS011;54898;40.918;14.476;2022-07-03T01:56:59;18.77;;;6.90;;
59520;SDS011;54898;40.918;14.476;2022-07-03T01:59:30;17.98;;;7.75;;
59520;SDS011;54898;40.918;14.476;2022-07-03T02:01:58;20.48;;;7.60;;
59520;SDS011;54898;40.918;14.476;2022-07-03T02:04:32;18.83;;;7.57;;
59520;SDS011;54898;40.918;14.476;2022-07-03T02:09:31;16.73;;;6.83;;
59520;SDS011;54898;40.918;14.476;2022-07-03T02:12:06;15.40;;;7.07;;
59520;SDS011;54898;40.918;14.476;2022-07-03T02:14:40;20.63;;;7.75;;
59520;SDS011;54898;40.918;14.476;2022-07-03T02:17:15;17.52;;;7.30;;
59520;SDS011;54898;40.918;14.476;2022-07-03T02:19:43;20.35;;;8.93;;
59520;SDS011;54898;40.918;14.476;2022-07-03T02:22:15;19.17;;;7.80;;
59520;SDS011;54898;40.918;14.476;2022-07-03T02:27:12;19.85;;;8.50;;
59520;SDS011;54898;40.918;14.476;2022-07-03T02:29:46;21.35;;;8.45;;
59520;SDS011;54898;40.918;14.476;2022-07-03T02:32:17;18.85;;;7.68;;
59520;SDS011;54898;40.918;14.476;2022-07-03T02:34:48;18.73;;;7.90;;
59520;SDS011;54898;40.918;14.476;2022-07-03T02:37:22;26.40;;;8.52;;
59520;SDS011;54898;40.918;14.476;2022-07-03T02:39:51;23.75;;;7.22;;
59520;SDS011;54898;40.918;14.476;2022-07-03T02:42:25;19.42;;;8.20;;
59520;SDS011;54898;40.918;14.476;2022-07-03T02:44:57;19.30;;;7.72;;
59520;SDS011;54898;40.918;14.476;2022-07-03T02:47:30;17.75;;;8.13;;
59520;SDS011;54898;40.918;14.476;2022-07-03T02:50:03;14.20;;;6.90;;
59520;SDS011;54898;40.918;14.476;2022-07-03T02:52:38;20.05;;;7.88;;
59520;SDS011;54898;40.918;14.476;2022-07-03T02:55:14;20.88;;;8.10;;
59520;SDS011;54898;40.918;14.476;2022-07-03T02:57:55;22.67;;;8.10;;
59520;SDS011;54898;40.918;14.476;2022-07-03T03:00:28;17.40;;;8.48;;
59520;SDS011;54898;40.918;14.476;2022-07-03T03:03:01;22.10;;;8.00;;
59520;SDS011;54898;40.918;14.476;2022-07-03T03:05:28;16.75;;;8.00;;
59520;SDS011;54898;40.918;14.476;2022-07-03T03:10:45;19.83;;;7.50;;
59520;SDS011;54898;40.918;14.476;2022-07-03T03:13:17;16.53;;;7.57;;
59520;SDS011;54898;40.918;14.476;2022-07-03T03:15:56;22.17;;;8.38;;
59520;SDS011;54898;40.918;14.476;2022-07-03T03:18:27;16.40;;;8.00;;
59520;SDS011;54898;40.918;14.476;2022-07-03T03:20:56;21.35;;;7.78;;
59520;SDS011;54898;40.918;14.476;2022-07-03T03:23:29;23.77;;;8.52;;
59520;SDS011;54898;40.918;14.476;2022-07-03T03:26:14;19.77;;;7.70;;
59520;SDS011;54898;40.918;14.476;2022-07-03T03:28:43;21.30;;;7.43;;
59520;SDS011;54898;40.918;14.476;2022-07-03T03:31:12;29.27;;;7.85;;
59520;SDS011;54898;40.918;14.476;2022-07-03T03:33:39;25.03;;;8.00;;
59520;SDS011;54898;40.918;14.476;2022-07-03T03:36:07;22.35;;;8.15;;
59520;SDS011;54898;40.918;14.476;2022-07-03T03:38:34;28.67;;;9.27;;
59520;SDS011;54898;40.918;14.476;2022-07-03T03:41:01;21.20;;;7.88;;
59520;SDS011;54898;40.918;14.476;2022-07-03T03:43:28;23.58;;;8.10;;
59520;SDS011;54898;40.918;14.476;2022-07-03T03:45:55;24.60;;;8.43;;
59520;SDS011;54898;40.918;14.476;2022-07-03T03:48:23;21.05;;;8.27;;
59520;SDS011;54898;40.918;14.476;2022-07-03T03:50:50;29.33;;;9.05;;
59520;SDS011;54898;40.918;14.476;2022-07-03T03:53:17;27.65;;;8.30;;
59520;SDS011;54898;40.918;14.476;2022-07-03T03:55:58;23.38;;;8.55;;
59520;SDS011;54898;40.918;14.476;2022-07-03T03:58:27;26.13;;;8.05;;
59520;SDS011;54898;40.918;14.476;2022-07-03T04:00:55;20.90;;;8.10;;
59520;SDS011;54898;40.918;14.476;2022-07-03T04:03:22;18.48;;;8.95;;
59520;SDS011;54898;40.918;14.476;2022-07-03T04:05:50;18.13;;;7.97;;
59520;SDS011;54898;40.918;14.476;2022-07-03T04:08:17;27.83;;;9.02;;
59520;SDS011;54898;40.918;14.476;2022-07-03T04:10:44;23.10;;;9.07;;
59520;SDS011;54898;40.918;14.476;2022-07-03T04:13:11;24.25;;;8.88;;
59520;SDS011;54898;40.918;14.476;2022-07-03T04:15:37;51.03;;;8.90;;
59520;SDS011;54898;40.918;14.476;2022-07-03T04:18:04;24.17;;;10.05;;
59520;SDS011;54898;40.918;14.476;2022-07-03T04:20:32;25.70;;;9.05;;
59520;SDS011;54898;40.918;14.476;2022-07-03T04:22:59;24.10;;;9.10;;
59520;SDS011;54898;40.918;14.476;2022-07-03T04:25:26;26.00;;;10.35;;
59520;SDS011;54898;40.918;14.476;2022-07-03T04:27:53;32.15;;;9.02;;
59520;SDS011;54898;40.918;14.476;2022-07-03T04:30:20;70.13;;;12.30;;
59520;SDS011;54898;40.918;14.476;2022-07-03T04:32:47;27.38;;;9.90;;
59520;SDS011;54898;40.918;14.476;2022-07-03T04:35:14;37.78;;;10.23;;
59520;SDS011;54898;40.918;14.476;2022-07-03T04:37:43;28.98;;;9.85;;
59520;SDS011;54898;40.918;14.476;2022-07-03T04:40:10;30.38;;;8.70;;
59520;SDS011;54898;40.918;14.476;2022-07-03T04:42:39;29.33;;;8.02;;
59520;SDS011;54898;40.918;14.476;2022-07-03T04:45:06;25.35;;;8.50;;
59520;SDS011;54898;40.918;14.476;2022-07-03T04:47:34;26.17;;;9.60;;
59520;SDS011;54898;40.918;14.476;2022-07-03T04:50:01;27.85;;;9.70;;
59520;SDS011;54898;40.918;14.476;2022-07-03T04:52:27;27.80;;;10.43;;
59520;SDS011;54898;40.918;14.476;2022-07-03T04:54:55;33.25;;;10.45;;
59520;SDS011;54898;40.918;14.476;2022-07-03T04:57:22;26.27;;;9.35;;
59520;SDS011;54898;40.918;14.476;2022-07-03T04:59:49;28.67;;;9.43;;
59520;SDS011;54898;40.918;14.476;2022-07-03T05:02:15;33.47;;;9.32;;
59520;SDS011;54898;40.918;14.476;2022-07-03T05:04:42;35.72;;;10.32;;
59520;SDS011;54898;40.918;14.476;2022-07-03T05:07:09;27.90;;;9.20;;
59520;SDS011;54898;40.918;14.476;2022-07-03T05:09:36;28.17;;;9.07;;
59520;SDS011;54898;40.918;14.476;2022-07-03T05:12:05;26.98;;;8.45;;
59520;SDS011;54898;40.918;14.476;2022-07-03T05:14:32;23.80;;;8.55;;
59520;SDS011;54898;40.918;14.476;2022-07-03T05:16:59;29.80;;;8.15;;
59520;SDS011;54898;40.918;14.476;2022-07-03T05:19:25;29.42;;;9.40;;
59520;SDS011;54898;40.918;14.476;2022-07-03T05:21:52;23.95;;;8.40;;
59520;SDS011;54898;40.918;14.476;2022-07-03T05:24:19;29.48;;;9.43;;
59520;SDS011;54898;40.918;14.476;2022-07-03T05:26:47;22.40;;;8.35;;
59520;SDS011;54898;40.918;14.476;2022-07-03T05:29:15;21.95;;;9.07;;
59520;SDS011;54898;40.918;14.476;2022-07-03T05:31:42;20.20;;;9.13;;
59520;SDS011;54898;40.918;14.476;2022-07-03T05:34:08;27.38;;;8.88;;
59520;SDS011;54898;40.918;14.476;2022-07-03T05:36:35;22.83;;;8.52;;
59520;SDS011;54898;40.918;14.476;2022-07-03T05:39:02;25.83;;;8.55;;
59520;SDS011;54898;40.918;14.476;2022-07-03T05:41:47;19.05;;;8.32;;
59520;SDS011;54898;40.918;14.476;2022-07-03T05:44:15;25.05;;;9.00;;
59520;SDS011;54898;40.918;14.476;2022-07-03T05:46:42;21.87;;;9.33;;
59520;SDS011;54898;40.918;14.476;2022-07-03T05:49:09;27.10;;;9.02;;
59520;SDS011;54898;40.918;14.476;2022-07-03T05:51:36;23.45;;;8.52;;
59520;SDS011;54898;40.918;14.476;2022-07-03T05:54:03;22.17;;;8.35;;
59520;SDS011;54898;40.918;14.476;2022-07-03T05:56:30;24.63;;;8.18;;
59520;SDS011;54898;40.918;14.476;2022-07-03T05:58:56;28.92;;;8.20;;
59520;SDS011;54898;40.918;14.476;2022-07-03T06:01:25;36.08;;;9.85;;
59520;SDS011;54898;40.918;14.476;2022-07-03T06:03:52;21.20;;;7.63;;
59520;SDS011;54898;40.918;14.476;2022-07-03T06:06:18;29.25;;;8.48;;
59520;SDS011;54898;40.918;14.476;2022-07-03T06:08:45;26.30;;;7.47;;
59520;SDS011;54898;40.918;14.476;2022-07-03T06:11:12;23.67;;;7.60;;
59520;SDS011;54898;40.918;14.476;2022-07-03T06:13:38;27.70;;;6.88;;
59520;SDS011;54898;40.918;14.476;2022-07-03T06:16:05;25.63;;;6.57;;
59520;SDS011;54898;40.918;14.476;2022-07-03T06:18:33;16.02;;;6.00;;
59520;SDS011;54898;40.918;14.476;2022-07-03T06:21:00;25.45;;;6.38;;
59520;SDS011;54898;40.918;14.476;2022-07-03T06:23:27;25.00;;;6.07;;
59520;SDS011;54898;40.918;14.476;2022-07-03T06:25:53;18.10;;;5.95;;
59520;SDS011;54898;40.918;14.476;2022-07-03T06:28:20;18.85;;;5.93;;
59520;SDS011;54898;40.918;14.476;2022-07-03T06:30:47;16.80;;;5.90;;
59520;SDS011;54898;40.918;14.476;2022-07-03T06:33:14;22.42;;;6.90;;
59520;SDS011;54898;40.918;14.476;2022-07-03T06:35:42;27.60;;;6.50;;
59520;SDS011;54898;40.918;14.476;2022-07-03T06:38:08;22.98;;;6.45;;
59520;SDS011;54898;40.918;14.476;2022-07-03T06:40:35;29.60;;;6.15;;
59520;SDS011;54898;40.918;14.476;2022-07-03T06:43:02;18.05;;;6.18;;
59520;SDS011;54898;40.918;14.476;2022-07-03T06:45:28;21.63;;;5.82;;
59520;SDS011;54898;40.918;14.476;2022-07-03T06:47:55;19.10;;;5.78;;
59520;SDS011;54898;40.918;14.476;2022-07-03T06:50:22;17.88;;;5.75;;
59520;SDS011;54898;40.918;14.476;2022-07-03T06:52:50;23.55;;;6.68;;
59520;SDS011;54898;40.918;14.476;2022-07-03T06:55:17;20.30;;;5.85;;
59520;SDS011;54898;40.918;14.476;2022-07-03T06:57:44;22.33;;;6.10;;
59520;SDS011;54898;40.918;14.476;2022-07-03T07:00:11;18.55;;;5.63;;
59520;SDS011;54898;40.918;14.476;2022-07-03T07:02:38;24.27;;;6.35;;
59520;SDS011;54898;40.918;14.476;2022-07-03T07:05:05;19.45;;;5.85;;
59520;SDS011;54898;40.918;14.476;2022-07-03T07:07:32;16.90;;;5.60;;
59520;SDS011;54898;40.918;14.476;2022-07-03T07:10:00;25.65;;;5.82;;
59520;SDS011;54898;40.918;14.476;2022-07-03T07:12:27;14.38;;;5.40;;
59520;SDS011;54898;40.918;14.476;2022-07-03T07:14:54;24.23;;;6.05;;
59520;SDS011;54898;40.918;14.476;2022-07-03T07:17:20;24.20;;;5.90;;
59520;SDS011;54898;40.918;14.476;2022-07-03T07:19:47;25.10;;;5.50;;
59520;SDS011;54898;40.918;14.476;2022-07-03T07:22:14;29.73;;;6.45;;
59520;SDS011;54898;40.918;14.476;2022-07-03T07:24:41;21.75;;;5.82;;
59520;SDS011;54898;40.918;14.476;2022-07-03T07:27:09;29.35;;;6.25;;
59520;SDS011;54898;40.918;14.476;2022-07-03T07:29:35;24.23;;;5.38;;
59520;SDS011;54898;40.918;14.476;2022-07-03T07:32:02;25.02;;;5.97;;
59520;SDS011;54898;40.918;14.476;2022-07-03T07:34:30;29.45;;;6.10;;
59520;SDS011;54898;40.918;14.476;2022-07-03T07:36:56;21.63;;;5.47;;
59520;SDS011;54898;40.918;14.476;2022-07-03T07:39:24;27.58;;;6.45;;
59520;SDS011;54898;40.918;14.476;2022-07-03T07:41:50;24.55;;;6.93;;
59520;SDS011;54898;40.918;14.476;2022-07-03T07:44:18;22.08;;;5.90;;
59520;SDS011;54898;40.918;14.476;2022-07-03T07:46:45;25.63;;;6.68;;
59520;SDS011;54898;40.918;14.476;2022-07-03T07:49:12;26.55;;;6.47;;
59520;SDS011;54898;40.918;14.476;2022-07-03T07:51:39;18.02;;;5.47;;
59520;SDS011;54898;40.918;14.476;2022-07-03T07:54:06;25.95;;;6.10;;
59520;SDS011;54898;40.918;14.476;2022-07-03T07:56:32;29.58;;;6.00;;
59520;SDS011;54898;40.918;14.476;2022-07-03T07:58:59;21.67;;;5.88;;
59520;SDS011;54898;40.918;14.476;2022-07-03T08:01:28;26.33;;;5.60;;
59520;SDS011;54898;40.918;14.476;2022-07-03T08:04:13;24.55;;;5.97;;
59520;SDS011;54898;40.918;14.476;2022-07-03T08:06:58;33.58;;;6.10;;
59520;SDS011;54898;40.918;14.476;2022-07-03T08:09:25;27.45;;;6.40;;
59520;SDS011;54898;40.918;14.476;2022-07-03T08:11:52;24.42;;;6.50;;
59520;SDS011;54898;40.918;14.476;2022-07-03T08:14:19;29.88;;;6.00;;
59520;SDS011;54898;40.918;14.476;2022-07-03T08:16:47;26.27;;;5.47;;
59520;SDS011;54898;40.918;14.476;2022-07-03T08:19:14;20.02;;;5.72;;
59520;SDS011;54898;40.918;14.476;2022-07-03T08:21:41;20.02;;;5.80;;
59520;SDS011;54898;40.918;14.476;2022-07-03T08:24:08;20.88;;;5.20;;
59520;SDS011;54898;40.918;14.476;2022-07-03T08:26:37;18.13;;;4.90;;
59520;SDS011;54898;40.918;14.476;2022-07-03T08:29:03;29.20;;;6.05;;
59520;SDS011;54898;40.918;14.476;2022-07-03T08:31:30;17.85;;;5.30;;
59520;SDS011;54898;40.918;14.476;2022-07-03T08:33:58;23.35;;;5.32;;
59520;SDS011;54898;40.918;14.476;2022-07-03T08:36:25;19.63;;;5.95;;
59520;SDS011;54898;40.918;14.476;2022-07-03T08:38:52;24.55;;;5.22;;
59520;SDS011;54898;40.918;14.476;2022-07-03T08:41:19;18.00;;;5.05;;
59520;SDS011;54898;40.918;14.476;2022-07-03T08:43:47;22.52;;;5.43;;
59520;SDS011;54898;40.918;14.476;2022-07-03T08:46:17;25.13;;;5.40;;
59520;SDS011;54898;40.918;14.476;2022-07-03T08:48:45;24.27;;;5.15;;
59520;SDS011;54898;40.918;14.476;2022-07-03T08:51:14;28.17;;;5.22;;
59520;SDS011;54898;40.918;14.476;2022-07-03T08:53:42;17.95;;;4.70;;
59520;SDS011;54898;40.918;14.476;2022-07-03T08:56:11;21.08;;;4.47;;
59520;SDS011;54898;40.918;14.476;2022-07-03T08:58:38;25.73;;;5.70;;
59520;SDS011;54898;40.918;14.476;2022-07-03T09:01:05;24.98;;;5.50;;
59520;SDS011;54898;40.918;14.476;2022-07-03T09:03:32;18.63;;;6.10;;
59520;SDS011;54898;40.918;14.476;2022-07-03T09:05:59;18.20;;;4.55;;
59520;SDS011;54898;40.918;14.476;2022-07-03T09:08:28;23.98;;;5.65;;
59520;SDS011;54898;40.918;14.476;2022-07-03T09:10:58;23.88;;;5.32;;
59520;SDS011;54898;40.918;14.476;2022-07-03T09:13:25;21.13;;;5.32;;
59520;SDS011;54898;40.918;14.476;2022-07-03T09:15:51;18.65;;;5.18;;
59520;SDS011;54898;40.918;14.476;2022-07-03T09:18:18;17.05;;;5.15;;
59520;SDS011;54898;40.918;14.476;2022-07-03T09:21:03;22.35;;;5.63;;
59520;SDS011;54898;40.918;14.476;2022-07-03T09:23:34;24.08;;;5.15;;
59520;SDS011;54898;40.918;14.476;2022-07-03T09:26:03;23.50;;;5.63;;
59520;SDS011;54898;40.918;14.476;2022-07-03T09:44:53;16.80;;;4.93;;
59520;SDS011;54898;40.918;14.476;2022-07-03T09:47:21;14.52;;;4.47;;
59520;SDS011;54898;40.918;14.476;2022-07-03T09:54:54;18.63;;;5.87;;
59520;SDS011;54898;40.918;14.476;2022-07-03T09:57:21;20.20;;;4.80;;
59520;SDS011;54898;40.918;14.476;2022-07-03T09:59:59;26.20;;;4.93;;
59520;SDS011;54898;40.918;14.476;2022-07-03T10:02:54;18.80;;;4.82;;
59520;SDS011;54898;40.918;14.476;2022-07-03T10:05:22;22.73;;;4.93;;
59520;SDS011;54898;40.918;14.476;2022-07-03T10:07:51;16.13;;;5.07;;
59520;SDS011;54898;40.918;14.476;2022-07-03T10:10:19;20.65;;;4.78;;
59520;SDS011;54898;40.918;14.476;2022-07-03T10:12:48;27.65;;;4.95;;
59520;SDS011;54898;40.918;14.476;2022-07-03T10:15:18;16.73;;;4.95;;
59520;SDS011;54898;40.918;14.476;2022-07-03T10:17:46;25.42;;;4.70;;
59520;SDS011;54898;40.918;14.476;2022-07-03T10:20:14;17.13;;;4.95;;
59520;SDS011;54898;40.918;14.476;2022-07-03T10:22:45;22.95;;;5.35;;
59520;SDS011;54898;40.918;14.476;2022-07-03T10:25:13;23.02;;;4.53;;
59520;SDS011;54898;40.918;14.476;2022-07-03T10:27:42;24.20;;;4.93;;
59520;SDS011;54898;40.918;14.476;2022-07-03T10:30:10;22.03;;;4.50;;
59520;SDS011;54898;40.918;14.476;2022-07-03T10:32:40;22.40;;;5.78;;
59520;SDS011;54898;40.918;14.476;2022-07-03T10:35:13;22.90;;;5.15;;
59520;SDS011;54898;40.918;14.476;2022-07-03T10:37:46;25.08;;;4.75;;
59520;SDS011;54898;40.918;14.476;2022-07-03T10:40:24;22.60;;;4.68;;
59520;SDS011;54898;40.918;14.476;2022-07-03T10:43:20;24.65;;;4.68;;
59520;SDS011;54898;40.918;14.476;2022-07-03T10:46:10;17.30;;;4.55;;
59520;SDS011;54898;40.918;14.476;2022-07-03T10:51:29;14.88;;;4.97;;
59520;SDS011;54898;40.918;14.476;2022-07-03T10:57:04;29.80;;;5.32;;
59520;SDS011;54898;40.918;14.476;2022-07-03T11:02:32;21.90;;;5.30;;
59520;SDS011;54898;40.918;14.476;2022-07-03T11:05:05;14.95;;;5.07;;
59520;SDS011;54898;40.918;14.476;2022-07-03T11:07:34;19.98;;;4.78;;
59520;SDS011;54898;40.918;14.476;2022-07-03T11:12:56;15.85;;;5.40;;
59520;SDS011;54898;40.918;14.476;2022-07-03T11:18:13;17.50;;;5.72;;
59520;SDS011;54898;40.918;14.476;2022-07-03T11:24:01;31.20;;;5.85;;
59520;SDS011;54898;40.918;14.476;2022-07-03T11:26:46;20.83;;;5.03;;
59520;SDS011;54898;40.918;14.476;2022-07-03T11:29:59;15.57;;;5.07;;
59520;SDS011;54898;40.918;14.476;2022-07-03T11:32:49;27.55;;;5.50;;
59520;SDS011;54898;40.918;14.476;2022-07-03T12:06:37;19.67;;;5.70;;
59520;SDS011;54898;40.918;14.476;2022-07-03T12:09:12;24.40;;;5.20;;
59520;SDS011;54898;40.918;14.476;2022-07-03T12:11:40;30.05;;;7.45;;
59520;SDS011;54898;40.918;14.476;2022-07-03T12:14:07;21.75;;;5.93;;
59520;SDS011;54898;40.918;14.476;2022-07-03T12:16:34;25.15;;;6.28;;
59520;SDS011;54898;40.918;14.476;2022-07-03T12:19:03;20.63;;;5.30;;
59520;SDS011;54898;40.918;14.476;2022-07-03T12:21:35;25.08;;;5.60;;
59520;SDS011;54898;40.918;14.476;2022-07-03T12:26:40;34.28;;;6.15;;
59520;SDS011;54898;40.918;14.476;2022-07-03T12:29:07;22.83;;;5.57;;
59520;SDS011;54898;40.918;14.476;2022-07-03T12:31:38;22.35;;;5.80;;
59520;SDS011;54898;40.918;14.476;2022-07-03T12:34:06;24.63;;;5.75;;
59520;SDS011;54898;40.918;14.476;2022-07-03T12:36:34;27.33;;;5.60;;
59520;SDS011;54898;40.918;14.476;2022-07-03T12:39:02;18.63;;;6.05;;
59520;SDS011;54898;40.918;14.476;2022-07-03T12:41:29;33.63;;;5.57;;
59520;SDS011;54898;40.918;14.476;2022-07-03T12:43:57;22.27;;;5.50;;
59520;SDS011;54898;40.918;14.476;2022-07-03T12:46:25;19.27;;;5.35;;
59520;SDS011;54898;40.918;14.476;2022-07-03T12:48:58;22.45;;;6.13;;
59520;SDS011;54898;40.918;14.476;2022-07-03T12:51:38;19.77;;;6.10;;
59520;SDS011;54898;40.918;14.476;2022-07-03T12:54:08;27.30;;;6.50;;
59520;SDS011;54898;40.918;14.476;2022-07-03T12:56:36;18.67;;;5.75;;
59520;SDS011;54898;40.918;14.476;2022-07-03T12:59:03;17.23;;;5.43;;
59520;SDS011;54898;40.918;14.476;2022-07-03T13:01:45;21.70;;;5.57;;
59520;SDS011;54898;40.918;14.476;2022-07-03T13:04:29;20.60;;;5.05;;
59520;SDS011;54898;40.918;14.476;2022-07-03T13:06:59;15.88;;;5.63;;
59520;SDS011;54898;40.918;14.476;2022-07-03T13:09:27;26.05;;;6.05;;
59520;SDS011;54898;40.918;14.476;2022-07-03T13:11:54;34.60;;;6.00;;
59520;SDS011;54898;40.918;14.476;2022-07-03T13:14:21;19.52;;;5.03;;
59520;SDS011;54898;40.918;14.476;2022-07-03T13:16:48;18.38;;;4.78;;
59520;SDS011;54898;40.918;14.476;2022-07-03T13:19:17;13.52;;;4.68;;
59520;SDS011;54898;40.918;14.476;2022-07-03T13:21:45;19.33;;;4.75;;
59520;SDS011;54898;40.918;14.476;2022-07-03T13:24:12;16.20;;;4.85;;
59520;SDS011;54898;40.918;14.476;2022-07-03T13:26:41;17.00;;;4.60;;
59520;SDS011;54898;40.918;14.476;2022-07-03T13:31:35;17.90;;;4.68;;
59520;SDS011;54898;40.918;14.476;2022-07-03T13:34:02;21.45;;;5.15;;
59520;SDS011;54898;40.918;14.476;2022-07-03T13:36:29;17.25;;;4.43;;
59520;SDS011;54898;40.918;14.476;2022-07-03T13:38:56;20.55;;;5.40;;
59520;SDS011;54898;40.918;14.476;2022-07-03T13:41:23;19.75;;;4.90;;
59520;SDS011;54898;40.918;14.476;2022-07-03T13:43:51;15.68;;;4.70;;
59520;SDS011;54898;40.918;14.476;2022-07-03T13:46:19;17.55;;;4.60;;
59520;SDS011;54898;40.918;14.476;2022-07-03T13:48:50;16.40;;;4.68;;
59520;SDS011;54898;40.918;14.476;2022-07-03T13:51:17;19.23;;;4.82;;
59520;SDS011;54898;40.918;14.476;2022-07-03T13:53:44;19.10;;;4.65;;
59520;SDS011;54898;40.918;14.476;2022-07-03T13:56:10;23.15;;;4.22;;
59520;SDS011;54898;40.918;14.476;2022-07-03T13:58:37;24.27;;;5.15;;
59520;SDS011;54898;40.918;14.476;2022-07-03T14:01:05;15.30;;;4.05;;
59520;SDS011;54898;40.918;14.476;2022-07-03T14:03:32;15.20;;;4.35;;
59520;SDS011;54898;40.918;14.476;2022-07-03T14:05:59;35.55;;;5.45;;
59520;SDS011;54898;40.918;14.476;2022-07-03T14:08:26;30.67;;;5.80;;
59520;SDS011;54898;40.918;14.476;2022-07-03T14:10:53;16.85;;;4.15;;
59520;SDS011;54898;40.918;14.476;2022-07-03T14:13:20;17.60;;;3.53;;
59520;SDS011;54898;40.918;14.476;2022-07-03T14:15:47;18.35;;;4.30;;
59520;SDS011;54898;40.918;14.476;2022-07-03T14:18:15;16.63;;;3.80;;
59520;SDS011;54898;40.918;14.476;2022-07-03T14:20:41;11.30;;;4.55;;
59520;SDS011;54898;40.918;14.476;2022-07-03T14:23:09;16.27;;;3.88;;
59520;SDS011;54898;40.918;14.476;2022-07-03T14:25:35;18.52;;;3.85;;
59520;SDS011;54898;40.918;14.476;2022-07-03T14:28:03;17.80;;;4.28;;
59520;SDS011;54898;40.918;14.476;2022-07-03T14:30:48;13.30;;;4.50;;
59520;SDS011;54898;40.918;14.476;2022-07-03T14:33:35;17.27;;;8.45;;
59520;SDS011;54898;40.918;14.476;2022-07-03T14:36:02;18.88;;;4.07;;
59520;SDS011;54898;40.918;14.476;2022-07-03T14:38:29;16.55;;;4.20;;
59520;SDS011;54898;40.918;14.476;2022-07-03T14:40:56;12.68;;;3.58;;
59520;SDS011;54898;40.918;14.476;2022-07-03T14:43:22;16.70;;;3.97;;
59520;SDS011;54898;40.918;14.476;2022-07-03T16:07:22;16.92;;;4.22;;
59520;SDS011;54898;40.918;14.476;2022-07-03T16:09:51;16.67;;;4.05;;
59520;SDS011;54898;40.918;14.476;2022-07-03T16:12:18;20.58;;;4.55;;
59520;SDS011;54898;40.918;14.476;2022-07-03T16:14:46;15.88;;;4.00;;
59520;SDS011;54898;40.918;14.476;2022-07-03T16:17:14;13.50;;;3.40;;
59520;SDS011;54898;40.918;14.476;2022-07-03T16:19:43;21.42;;;4.85;;
59520;SDS011;54898;40.918;14.476;2022-07-03T16:22:11;23.00;;;4.50;;
59520;SDS011;54898;40.918;14.476;2022-07-03T16:24:39;13.63;;;3.80;;
59520;SDS011;54898;40.918;14.476;2022-07-03T16:27:10;17.95;;;4.47;;
59520;SDS011;54898;40.918;14.476;2022-07-03T16:29:38;12.52;;;3.97;;
59520;SDS011;54898;40.918;14.476;2022-07-03T16:32:05;16.48;;;4.00;;
59520;SDS011;54898;40.918;14.476;2022-07-03T16:34:37;21.83;;;4.03;;
59520;SDS011;54898;40.918;14.476;2022-07-03T16:37:06;18.67;;;4.30;;
59520;SDS011;54898;40.918;14.476;2022-07-03T16:39:37;15.60;;;4.25;;
59520;SDS011;54898;40.918;14.476;2022-07-03T16:42:09;37.67;;;4.63;;
59520;SDS011;54898;40.918;14.476;2022-07-03T16:44:38;23.38;;;4.60;;
59520;SDS011;54898;40.918;14.476;2022-07-03T16:47:07;14.23;;;3.83;;
59520;SDS011;54898;40.918;14.476;2022-07-03T16:49:35;14.82;;;4.43;;
59520;SDS011;54898;40.918;14.476;2022-07-03T16:52:03;25.42;;;5.07;;
59520;SDS011;54898;40.918;14.476;2022-07-03T16:54:32;12.85;;;4.30;;
59520;SDS011;54898;40.918;14.476;2022-07-03T16:56:59;15.45;;;4.40;;
59520;SDS011;54898;40.918;14.476;2022-07-03T16:59:27;13.23;;;3.83;;
59520;SDS011;54898;40.918;14.476;2022-07-03T17:01:55;20.23;;;4.63;;
59520;SDS011;54898;40.918;14.476;2022-07-03T17:04:22;17.42;;;4.78;;
59520;SDS011;54898;40.918;14.476;2022-07-03T17:06:53;17.30;;;4.78;;
59520;SDS011;54898;40.918;14.476;2022-07-03T17:09:20;21.40;;;4.47;;
59520;SDS011;54898;40.918;14.476;2022-07-03T17:11:48;19.33;;;5.10;;
59520;SDS011;54898;40.918;14.476;2022-07-03T17:14:15;20.05;;;5.30;;
59520;SDS011;54898;40.918;14.476;2022-07-03T17:16:49;21.10;;;4.90;;
59520;SDS011;54898;40.918;14.476;2022-07-03T17:19:20;15.88;;;4.97;;
59520;SDS011;54898;40.918;14.476;2022-07-03T17:21:49;18.05;;;5.50;;
59520;SDS011;54898;40.918;14.476;2022-07-03T17:24:17;18.35;;;4.72;;
59520;SDS011;54898;40.918;14.476;2022-07-03T17:31:44;13.27;;;4.88;;